Time;durP1;ratioP1;P1;durP2;ratioP2;P2;SDS_P1;SDS_P2;PMS_P1;PMS_P2;Temp;Humidity;BMP_temperature;BMP_pressure;BME280_temperature;BME280_humidity;BME280_pressure;Samples;Min_cycle;Max_cycle;Signal;HPM_P1;HPM_P2
2022/03/06 00:00:41;;;;;;;8.93;6.75;;;;;;;-2.27;100.00;101297.47;1738278;82;21062;-87
2022/03/06 00:03:09;;;;;;;8.33;6.70;;;;;;;-2.27;100.00;101303.02;1746023;82;21054;-88
2022/03/06 00:05:36;;;;;;;9.28;6.80;;;;;;;-2.27;100.00;101301.73;1746028;82;21311;-89
2022/03/06 00:08:04;;;;;;;8.88;7.12;;;;;;;-2.27;100.00;101305.12;1717051;82;21061;-90
2022/03/06 00:10:33;;;;;;;9.40;7.47;;;;;;;-2.28;100.00;101309.80;1745731;82;21233;-89
2022/03/06 00:13:02;;;;;;;8.80;6.90;;;;;;;-2.28;100.00;101307.25;1745855;82;21639;-88
2022/03/06 00:15:30;;;;;;;9.53;6.70;;;;;;;-2.28;100.00;101303.88;1745702;82;21611;-88
2022/03/06 00:17:56;;;;;;;10.03;6.37;;;;;;;-2.29;100.00;101302.17;1746583;81;21042;-88
2022/03/06 00:20:24;;;;;;;10.05;6.62;;;;;;;-2.31;100.00;101303.47;1748120;82;21018;-89
2022/03/06 00:22:51;;;;;;;9.50;6.78;;;;;;;-2.30;100.00;101308.13;1748080;82;21265;-89
2022/03/06 00:25:19;;;;;;;8.78;6.42;;;;;;;-2.30;100.00;101314.10;1719397;82;21030;-89
2022/03/06 00:27:46;;;;;;;11.18;7.30;;;;;;;-2.31;100.00;101308.58;1718155;82;21014;-88
2022/03/06 00:30:13;;;;;;;8.83;6.85;;;;;;;-2.31;100.00;101310.27;1748291;81;21010;-87
2022/03/06 00:32:41;;;;;;;10.10;7.30;;;;;;;-2.31;100.00;101316.23;1747981;81;21519;-88
2022/03/06 00:35:09;;;;;;;9.83;7.03;;;;;;;-2.33;100.00;101320.50;1747782;82;21248;-89
2022/03/06 00:37:38;;;;;;;9.68;7.17;;;;;;;-2.33;100.00;101316.67;1748188;81;22096;-88
2022/03/06 00:40:07;;;;;;;8.98;7.10;;;;;;;-2.33;100.00;101318.39;1748003;82;21485;-88
2022/03/06 00:42:34;;;;;;;8.08;6.20;;;;;;;-2.35;100.00;101326.04;1747955;81;21120;-87
2022/03/06 00:45:02;;;;;;;8.83;6.22;;;;;;;-2.36;100.00;101326.89;1748256;81;21022;-87
2022/03/06 00:47:30;;;;;;;10.80;7.28;;;;;;;-2.36;100.00;101326.89;1748084;82;21907;-88
2022/03/06 00:49:59;;;;;;;11.05;7.00;;;;;;;-2.38;100.00;101329.47;1748289;82;21562;-88
2022/03/06 00:52:27;;;;;;;9.75;6.15;;;;;;;-2.39;100.00;101327.78;1748174;82;20963;-88
2022/03/06 00:54:54;;;;;;;7.80;6.03;;;;;;;-2.39;100.00;101331.60;1748126;81;21011;-88
2022/03/06 00:57:21;;;;;;;8.30;6.55;;;;;;;-2.40;100.00;101330.35;1748528;81;21432;-88
2022/03/06 00:59:48;;;;;;;7.00;5.90;;;;;;;-2.41;100.00;101333.34;1747987;81;21279;-90
2022/03/06 01:02:15;;;;;;;8.23;6.55;;;;;;;-2.41;100.00;101335.89;1748308;81;21086;-89
2022/03/06 01:04:44;;;;;;;7.62;6.42;;;;;;;-2.42;100.00;101339.72;1748090;81;21093;-88
2022/03/06 01:07:11;;;;;;;8.75;7.03;;;;;;;-2.44;100.00;101340.16;1748089;81;21081;-89
2022/03/06 01:09:37;;;;;;;8.65;6.40;;;;;;;-2.43;100.00;101341.84;1748339;82;21116;-89
2022/03/06 01:12:05;;;;;;;8.40;6.17;;;;;;;-2.44;100.00;101344.84;1719365;82;21504;-88
2022/03/06 01:14:32;;;;;;;8.13;6.12;;;;;;;-2.46;100.00;101341.89;1748328;81;21677;-90
2022/03/06 01:17:00;;;;;;;8.48;6.00;;;;;;;-2.47;100.00;101344.03;1748264;81;22584;-90
2022/03/06 01:19:28;;;;;;;7.60;6.25;;;;;;;-2.47;100.00;101352.95;1753823;81;21026;-90
2022/03/06 01:21:55;;;;;;;7.95;6.35;;;;;;;-2.50;100.00;101342.77;1755085;81;21077;-89
2022/03/06 01:24:22;;;;;;;8.80;6.40;;;;;;;-2.50;100.00;101352.97;1754570;81;21894;-91
2022/03/06 01:26:49;;;;;;;9.10;6.03;;;;;;;-2.52;100.00;101347.89;1754655;81;21037;-90
2022/03/06 01:29:15;;;;;;;7.42;6.30;;;;;;;-2.52;100.00;101350.44;1755397;81;21100;-92
2022/03/06 01:31:42;;;;;;;8.10;6.53;;;;;;;-2.54;100.00;101349.60;1705423;82;22303;-93
2022/03/06 01:34:10;;;;;;;9.90;6.15;;;;;;;-2.54;100.00;101350.47;1737532;81;21661;-88
2022/03/06 01:36:37;;;;;;;9.35;6.95;;;;;;;-2.55;100.00;101351.73;1755028;81;21129;-90
2022/03/06 01:39:04;;;;;;;8.05;6.00;;;;;;;-2.56;100.00;101354.73;1754937;81;21623;-89
2022/03/06 01:42:00;;;;;;;9.70;6.70;;;;;;;-2.55;100.00;101358.11;1754565;81;21069;-90
2022/03/06 01:44:14;;;;;;;10.45;7.00;;;;;;;-2.55;100.00;101369.58;1715381;81;21041;-89
2022/03/06 01:46:48;;;;;;;9.95;7.90;;;;;;;-2.57;100.00;101366.22;1754891;81;21077;-88
2022/03/06 01:49:16;;;;;;;11.85;8.63;;;;;;;-2.58;100.00;101369.63;1750756;81;21160;-89
2022/03/06 01:51:44;;;;;;;11.85;6.97;;;;;;;-2.58;100.00;101377.28;1755055;81;21046;-89
2022/03/06 01:54:13;;;;;;;10.63;7.60;;;;;;;-2.57;100.00;101375.15;1754704;81;21491;-89
2022/03/06 01:56:42;;;;;;;9.78;7.50;;;;;;;-2.58;100.00;101375.56;1754757;81;21037;-90
2022/03/06 01:59:11;;;;;;;10.65;7.80;;;;;;;-2.60;100.00;101373.45;1754830;81;21077;-88
2022/03/06 02:01:38;;;;;;;9.90;7.42;;;;;;;-2.61;100.00;101379.44;1721040;81;21346;-88
2022/03/06 02:04:05;;;;;;;10.90;8.03;;;;;;;-2.63;100.00;101379.00;1754839;81;21065;-89
2022/03/06 02:06:32;;;;;;;12.43;7.83;;;;;;;-2.63;100.00;101379.86;1754669;81;21077;-87
2022/03/06 02:09:02;;;;;;;9.83;8.15;;;;;;;-2.65;100.00;101381.58;1754538;81;21010;-89
2022/03/06 02:11:32;;;;;;;11.00;8.33;;;;;;;-2.64;100.00;101388.81;1754898;81;21006;-87
2022/03/06 02:14:02;;;;;;;11.15;8.28;;;;;;;-2.64;100.00;101387.09;1754570;81;21943;-87
2022/03/06 02:16:34;;;;;;;10.72;8.48;;;;;;;-2.64;100.00;101388.38;1717683;81;21096;-87
2022/03/06 02:19:02;;;;;;;11.43;8.70;;;;;;;-2.65;100.00;101389.22;1750141;81;21104;-87
2022/03/06 02:21:30;;;;;;;10.25;8.78;;;;;;;-2.65;100.00;101390.50;1745301;82;21058;-88
2022/03/06 02:23:59;;;;;;;11.12;8.15;;;;;;;-2.64;100.00;101395.19;1715831;82;22258;-89
2022/03/06 02:26:26;;;;;;;11.78;8.58;;;;;;;-2.66;100.00;101393.91;1746050;82;21214;-89
2022/03/06 02:28:52;;;;;;;10.40;7.78;;;;;;;-2.66;100.00;101400.72;1745721;82;21077;-89
2022/03/06 02:31:19;;;;;;;11.95;8.15;;;;;;;-2.67;100.00;101396.47;1745556;82;21567;-87
2022/03/06 02:33:47;;;;;;;11.28;8.43;;;;;;;-2.69;100.00;101401.59;1745608;82;21069;-88
2022/03/06 02:36:14;;;;;;;11.30;8.60;;;;;;;-2.70;100.00;101405.83;1745465;82;20999;-89
2022/03/06 02:38:41;;;;;;;12.10;8.05;;;;;;;-2.71;100.00;101404.13;1745748;82;21249;-87
2022/03/06 02:41:07;;;;;;;10.85;8.50;;;;;;;-2.72;100.00;101402.44;1745803;82;21045;-89
2022/03/06 02:43:36;;;;;;;12.13;8.33;;;;;;;-2.71;100.00;101402.02;1745547;82;21057;-88
2022/03/06 02:46:04;;;;;;;11.05;8.35;;;;;;;-2.70;100.00;101403.72;1745618;82;21037;-87
2022/03/06 02:48:31;;;;;;;11.53;8.68;;;;;;;-2.70;100.00;101407.11;1745865;82;21061;-89
2022/03/06 02:50:59;;;;;;;10.75;8.48;;;;;;;-2.71;100.00;101411.78;1745706;82;21272;-89
2022/03/06 02:53:26;;;;;;;11.97;8.65;;;;;;;-2.71;100.00;101408.40;1745899;82;21109;-88
2022/03/06 02:55:54;;;;;;;11.48;7.83;;;;;;;-2.71;100.00;101408.40;1746090;82;21093;-88
2022/03/06 02:58:22;;;;;;;12.70;8.80;;;;;;;-2.72;100.00;101417.73;1745464;82;21047;-88
2022/03/06 03:00:49;;;;;;;11.35;8.38;;;;;;;-2.74;100.00;101415.65;1745640;82;21077;-88
2022/03/06 03:03:15;;;;;;;11.28;8.65;;;;;;;-2.74;100.00;101414.78;1745537;82;21278;-88
2022/03/06 03:05:45;;;;;;;10.50;8.40;;;;;;;-2.75;100.00;101420.73;1745292;82;21630;-89
2022/03/06 03:08:12;;;;;;;12.05;9.05;;;;;;;-2.76;100.00;101419.04;1745577;82;21113;-88
2022/03/06 03:10:39;;;;;;;10.32;8.48;;;;;;;-2.76;100.00;101431.78;1746066;82;21086;-88
2022/03/06 03:13:06;;;;;;;10.68;8.40;;;;;;;-2.76;100.00;101436.89;1746144;82;21061;-88
2022/03/06 03:15:33;;;;;;;13.35;9.85;;;;;;;-2.77;100.00;101438.60;1741051;82;21168;-88
2022/03/06 03:18:00;;;;;;;12.80;9.68;;;;;;;-2.78;100.00;101440.73;1746154;82;21591;-87
2022/03/06 03:20:27;;;;;;;12.45;9.18;;;;;;;-2.77;100.00;101445.42;1747198;81;21598;-89
2022/03/06 03:22:56;;;;;;;12.78;8.88;;;;;;;-2.76;100.00;101445.81;1748080;82;20982;-87
2022/03/06 03:25:23;;;;;;;13.25;9.25;;;;;;;-2.77;100.00;101439.88;1748049;81;21116;-89
2022/03/06 03:27:50;;;;;;;11.12;8.50;;;;;;;-2.77;100.00;101446.25;1748028;81;21224;-88
2022/03/06 03:30:17;;;;;;;11.53;8.48;;;;;;;-2.77;100.00;101446.70;1736408;82;21066;-87
2022/03/06 03:32:45;;;;;;;12.90;8.30;;;;;;;-2.77;100.00;101450.52;1717495;83;21120;-89
2022/03/06 03:35:11;;;;;;;12.58;8.88;;;;;;;-2.78;100.00;101453.92;1718368;83;21530;-88
2022/03/06 03:37:38;;;;;;;12.05;8.90;;;;;;;-2.78;100.00;101459.02;1717989;83;21081;-88
2022/03/06 03:40:07;;;;;;;11.80;8.88;;;;;;;-2.80;100.00;101460.72;1718418;83;21230;-88
2022/03/06 03:42:35;;;;;;;12.13;8.68;;;;;;;-2.79;100.00;101465.80;1718316;83;21018;-88
2022/03/06 03:45:05;;;;;;;14.10;10.25;;;;;;;-2.79;100.00;101468.35;1718774;83;21496;-89
2022/03/06 03:47:32;;;;;;;11.10;8.90;;;;;;;-2.80;100.00;101473.47;1718207;83;21073;-89
2022/03/06 03:49:59;;;;;;;12.33;9.58;;;;;;;-2.81;100.00;101473.05;1718048;83;21049;-88
2022/03/06 03:52:26;;;;;;;11.85;8.70;;;;;;;-2.83;100.00;101469.23;1738382;82;21190;-88
2022/03/06 03:54:53;;;;;;;12.33;9.53;;;;;;;-2.83;100.00;101462.00;1748140;82;21065;-89
2022/03/06 03:57:23;;;;;;;13.78;10.18;;;;;;;-2.84;100.00;101466.71;1748061;82;21018;-89
2022/03/06 03:59:48;;;;;;;11.55;8.98;;;;;;;-2.86;100.00;101470.11;1747200;81;21657;-89
2022/03/06 04:02:15;;;;;;;11.73;9.73;;;;;;;-2.87;100.00;101472.64;1748497;82;21133;-87
2022/03/06 04:04:42;;;;;;;14.20;10.85;;;;;;;-2.86;100.00;101469.25;1748056;81;21164;-88
2022/03/06 04:07:10;;;;;;;12.03;9.93;;;;;;;-2.86;100.00;101471.38;1748036;81;22079;-89
2022/03/06 04:09:37;;;;;;;14.05;10.60;;;;;;;-2.86;100.00;101470.52;1748330;81;21500;-88
2022/03/06 04:12:04;;;;;;;12.28;9.68;;;;;;;-2.85;100.00;101476.04;1748464;82;21046;-90
2022/03/06 04:14:31;;;;;;;12.78;9.20;;;;;;;-2.84;100.00;101471.80;1747929;82;21062;-89
2022/03/06 04:16:58;;;;;;;11.93;9.45;;;;;;;-2.83;100.00;101480.71;1747881;82;22057;-89
2022/03/06 04:19:25;;;;;;;11.68;9.73;;;;;;;-2.84;100.00;101478.18;1750147;81;21116;-89
2022/03/06 04:21:53;;;;;;;15.43;10.28;;;;;;;-2.85;100.00;101481.14;1747501;81;21449;-90
2022/03/06 04:24:20;;;;;;;14.15;10.18;;;;;;;-2.84;100.00;101481.56;1703327;83;21062;-89
2022/03/06 04:26:46;;;;;;;13.75;9.85;;;;;;;-2.86;100.00;101482.86;1773775;80;21117;-87
2022/03/06 04:29:13;;;;;;;14.30;10.10;;;;;;;-2.87;100.00;101487.53;1803213;78;21527;-89
2022/03/06 04:31:40;;;;;;;14.98;10.95;;;;;;;-2.86;100.00;101489.64;1775830;79;21066;-89
2022/03/06 04:34:08;;;;;;;14.53;10.35;;;;;;;-2.87;100.00;101484.98;1782663;78;21064;-88
2022/03/06 04:36:36;;;;;;;13.90;10.18;;;;;;;-2.87;100.00;101487.94;1798513;78;21014;-92
2022/03/06 04:39:05;;;;;;;14.73;10.13;;;;;;;-2.88;100.00;101492.20;1789007;79;21057;-90
2022/03/06 04:41:32;;;;;;;14.70;10.55;;;;;;;-2.88;100.00;101486.24;1790500;79;21257;-90
2022/03/06 04:44:00;;;;;;;14.80;10.88;;;;;;;-2.89;100.00;101495.61;1811490;78;21002;-89
2022/03/06 04:46:27;;;;;;;13.43;9.93;;;;;;;-2.88;100.00;101500.27;1808969;79;21068;-90
2022/03/06 04:48:53;;;;;;;16.93;10.82;;;;;;;-2.89;100.00;101505.80;1810852;78;21014;-88
2022/03/06 04:51:20;;;;;;;14.55;10.78;;;;;;;-2.87;100.00;101510.47;1801470;79;21064;-88
2022/03/06 04:53:47;;;;;;;15.55;11.15;;;;;;;-2.84;100.00;101508.77;1803639;78;21889;-88
2022/03/06 04:56:14;;;;;;;12.68;9.70;;;;;;;-2.82;100.00;101508.31;1790667;77;21069;-88
2022/03/06 04:58:42;;;;;;;13.75;9.80;;;;;;;-2.78;100.00;101512.12;1803309;78;21063;-88
2022/03/06 05:01:08;;;;;;;16.77;11.43;;;;;;;-2.75;100.00;101513.80;1789747;79;21028;-87
2022/03/06 05:03:37;;;;;;;12.40;9.58;;;;;;;-2.72;100.00;101517.62;1763160;79;21092;-88
2022/03/06 05:06:04;;;;;;;12.60;9.98;;;;;;;-2.69;100.00;101516.34;1801444;78;21289;-89
2022/03/06 05:08:32;;;;;;;15.03;9.63;;;;;;;-2.65;100.00;101523.09;1791824;79;21004;-88
2022/03/06 05:11:01;;;;;;;14.13;11.12;;;;;;;-2.63;100.00;101526.50;1784733;79;21018;-87
2022/03/06 05:13:30;;;;;;;16.60;11.28;;;;;;;-2.60;100.00;101526.46;1799537;79;21040;-87
2022/03/06 05:15:56;;;;;;;15.45;11.25;;;;;;;-2.57;100.00;101523.07;1803195;78;21044;-88
2022/03/06 05:18:23;;;;;;;14.80;10.75;;;;;;;-2.56;100.00;101521.78;1801366;78;21777;-89
2022/03/06 05:20:50;;;;;;;18.27;11.93;;;;;;;-2.55;100.00;101527.30;1798111;78;21029;-89
2022/03/06 05:23:17;;;;;;;13.45;9.65;;;;;;;-2.54;100.00;101523.90;1809755;78;21112;-87
2022/03/06 05:25:46;;;;;;;15.55;10.08;;;;;;;-2.50;100.00;101528.96;1819539;78;21499;-88
2022/03/06 05:28:14;;;;;;;16.42;10.98;;;;;;;-2.47;100.00;101532.78;1761274;80;22082;-91
2022/03/06 05:30:42;;;;;;;13.78;10.03;;;;;;;-2.44;100.00;101535.30;1775823;80;21244;-88
2022/03/06 05:33:09;;;;;;;14.53;10.28;;;;;;;-2.40;100.00;101533.16;1754398;80;21677;-88
2022/03/06 05:35:36;;;;;;;14.75;10.60;;;;;;;-2.36;100.00;101536.09;1764395;79;21299;-88
2022/03/06 05:38:03;;;;;;;13.35;10.05;;;;;;;-2.31;100.00;101541.17;1762957;79;21023;-89
2022/03/06 05:40:30;;;;;;;14.63;10.65;;;;;;;-2.27;100.00;101536.48;1732246;81;21085;-88
2022/03/06 05:42:58;;;;;;;14.35;9.90;;;;;;;-2.23;100.00;101538.14;1740106;81;21232;-90
2022/03/06 05:45:25;;;;;;;13.38;9.80;;;;;;;-2.16;100.00;101542.78;1735499;81;21148;-91
2022/03/06 05:47:51;;;;;;;14.85;10.38;;;;;;;-2.11;100.00;101536.79;1742671;81;21061;-89
2022/03/06 05:50:18;;;;;;;22.27;10.25;;;;;;;-2.03;100.00;101536.72;1754549;81;22286;-84
2022/03/06 05:52:48;;;;;;;33.05;10.80;;;;;;;-1.93;100.00;101539.62;1709576;82;21030;-84
2022/03/06 05:55:15;;;;;;;18.98;10.72;;;;;;;-1.36;100.00;101549.73;1746284;81;21445;-84
2022/03/06 05:57:42;;;;;;;44.08;10.65;;;;;;;-1.06;100.00;101547.70;1737179;81;21105;-82
2022/03/06 06:00:10;;;;;;;15.38;10.00;;;;;;;-0.99;100.00;101546.76;1730659;81;21697;-85
2022/03/06 06:02:38;;;;;;;15.98;9.43;;;;;;;-0.97;100.00;101547.59;1737572;81;21543;-88
2022/03/06 06:05:07;;;;;;;13.53;9.70;;;;;;;-1.11;100.00;101549.03;1737440;81;21677;-84
2022/03/06 06:07:34;;;;;;;24.80;11.73;;;;;;;-1.25;100.00;101553.90;1750910;81;22146;-82
2022/03/06 06:10:06;;;;;;;31.42;11.75;;;;;;;-1.29;100.00;101550.53;1714881;81;20995;-80
2022/03/06 06:12:33;;;;;;;22.15;10.70;;;;;;;-1.09;100.00;101550.72;1738034;81;21382;-82
2022/03/06 06:14:59;;;;;;;17.87;9.68;;;;;;;-0.89;100.00;101555.19;1742231;81;21598;-84
2022/03/06 06:17:27;;;;;;;17.62;12.45;;;;;;;-0.81;100.00;101555.94;1743280;81;21105;-86
2022/03/06 06:19:54;;;;;;;41.00;28.17;;;;;;;-0.78;100.00;101553.77;1743630;81;21828;-90
2022/03/06 06:22:21;;;;;;;14.43;9.78;;;;;;;-0.85;100.00;101559.83;1719850;82;21097;-85
2022/03/06 06:24:48;;;;;;;11.15;7.55;;;;;;;-0.93;100.00;101552.69;1734746;82;21018;-82
2022/03/06 06:27:15;;;;;;;11.10;7.80;;;;;;;-1.00;100.00;101557.84;1731249;82;21006;-82
2022/03/06 06:29:42;;;;;;;9.85;7.15;;;;;;;-0.99;100.00;101559.99;1729011;82;21094;-84
2022/03/06 06:32:08;;;;;;;11.05;7.15;;;;;;;-0.99;100.00;101563.38;1725909;82;21897;-84
2022/03/06 06:34:35;;;;;;;8.38;6.42;;;;;;;-0.99;100.00;101563.38;1733627;82;21062;-83
2022/03/06 06:37:05;;;;;;;13.48;7.12;;;;;;;-0.98;100.00;101564.24;1735008;81;21057;-88
2022/03/06 06:39:32;;;;;;;11.38;7.60;;;;;;;-0.92;100.00;101570.56;1713845;82;21140;-84
2022/03/06 06:42:03;;;;;;;9.68;7.22;;;;;;;-0.76;100.00;101563.97;1718698;81;21039;-84
2022/03/06 06:44:31;;;;;;;8.43;6.25;;;;;;;-0.70;100.00;101579.23;1736499;81;21171;-83
2022/03/06 06:46:58;;;;;;;8.55;6.00;;;;;;;-0.67;100.00;101582.59;1749376;81;21006;-85
2022/03/06 06:49:25;;;;;;;8.90;6.03;;;;;;;-0.67;100.00;101576.20;1745988;81;21100;-83
2022/03/06 06:51:59;;;;;;;8.50;5.47;;;;;;;-0.64;100.00;101574.90;1729367;81;21636;-85
2022/03/06 06:54:26;;;;;;;9.35;5.95;;;;;;;-0.61;100.00;101574.45;1801064;78;21010;-84
2022/03/06 06:56:53;;;;;;;7.08;5.92;;;;;;;-0.59;100.00;101573.98;1794715;79;21555;-83
2022/03/06 06:59:20;;;;;;;6.35;5.15;;;;;;;-0.58;100.00;101575.67;1797273;79;21026;-84
2022/03/06 07:01:47;;;;;;;7.65;5.85;;;;;;;-0.51;100.00;101573.44;1803356;78;20960;-85
2022/03/06 07:04:15;;;;;;;7.90;5.62;;;;;;;-0.45;100.00;101568.68;1807600;78;21022;-84
2022/03/06 07:06:43;;;;;;;6.42;5.00;;;;;;;-0.41;100.00;101567.34;1811867;79;21069;-84
2022/03/06 07:09:09;;;;;;;6.67;5.37;;;;;;;-0.33;100.00;101570.64;1787579;79;22393;-83
2022/03/06 07:11:36;;;;;;;6.62;5.37;;;;;;;-0.27;100.00;101577.80;1779417;79;21061;-83
2022/03/06 07:14:03;;;;;;;6.50;5.22;;;;;;;-0.23;100.00;101573.90;1799861;78;21563;-83
2022/03/06 07:16:30;;;;;;;5.60;4.87;;;;;;;-0.18;100.00;101575.11;1810966;78;21110;-83
2022/03/06 07:18:59;;;;;;;5.40;4.53;;;;;;;-0.17;100.00;101571.27;1798283;78;21080;-92
2022/03/06 07:21:26;;;;;;;8.18;4.37;;;;;;;-0.14;100.00;101583.59;1802019;78;21785;-90
2022/03/06 07:23:54;;;;;;;6.28;4.87;;;;;;;-0.11;100.00;101571.59;1804687;78;21078;-87
2022/03/06 07:26:21;;;;;;;6.47;4.50;;;;;;;-0.05;100.00;101575.78;1792290;79;21129;-84
2022/03/06 07:28:49;;;;;;;5.65;4.17;;;;;;;0.01;100.00;101579.52;1757826;79;21073;-83
2022/03/06 07:31:16;;;;;;;4.37;3.80;;;;;;;0.05;100.00;101580.31;1775574;79;21845;-84
2022/03/06 07:33:43;;;;;;;5.35;4.08;;;;;;;0.07;100.00;101580.73;1768706;79;21849;-83
2022/03/06 07:36:11;;;;;;;5.33;3.90;;;;;;;0.10;100.00;101573.42;1787995;79;21019;-86
2022/03/06 07:38:38;;;;;;;7.97;5.87;;;;;;;0.15;100.00;101578.03;1775791;77;21013;-84
2022/03/06 07:41:05;;;;;;;5.47;4.25;;;;;;;0.25;100.00;101575.73;1797154;79;20963;-83
2022/03/06 07:43:32;;;;;;;5.20;3.70;;;;;;;0.37;100.00;101575.97;1741319;82;21022;-83
2022/03/06 07:45:59;;;;;;;3.75;3.30;;;;;;;0.50;100.00;101579.16;1741338;81;21402;-85
2022/03/06 07:48:26;;;;;;;4.20;3.33;;;;;;;0.60;100.00;101580.66;1744288;80;21007;-86
2022/03/06 07:50:53;;;;;;;4.40;3.20;;;;;;;0.71;100.00;101575.79;1779784;79;21604;-85
2022/03/06 07:53:21;;;;;;;6.37;3.60;;;;;;;0.82;100.00;101575.58;1780253;79;21601;-85
2022/03/06 07:55:48;;;;;;;4.17;3.52;;;;;;;0.87;97.04;101579.76;1782797;78;21041;-87
2022/03/06 07:58:15;;;;;;;4.47;3.30;;;;;;;0.91;100.00;101576.70;1796151;78;21145;-84
2022/03/06 08:00:42;;;;;;;4.20;3.05;;;;;;;0.92;100.00;101585.63;1795649;78;21014;-84
2022/03/06 08:03:09;;;;;;;3.40;3.10;;;;;;;0.95;99.98;101589.88;1803281;78;21069;-85
2022/03/06 08:05:38;;;;;;;4.50;3.33;;;;;;;0.99;99.63;101595.80;1779305;80;21129;-85
2022/03/06 08:08:05;;;;;;;3.70;3.10;;;;;;;1.00;89.97;101589.80;1779918;80;20959;-85
2022/03/06 08:10:33;;;;;;;3.47;3.17;;;;;;;1.04;91.90;101590.13;1779727;80;21231;-84
2022/03/06 08:13:00;;;;;;;5.75;3.70;;;;;;;1.04;80.59;101589.68;1779791;79;20986;-87
2022/03/06 08:15:28;;;;;;;7.08;4.22;;;;;;;1.00;85.41;101588.06;1793067;79;33482;-81
2022/03/06 08:17:54;;;;;;;4.10;3.30;;;;;;;0.98;85.57;101589.80;1782343;78;20974;-84
2022/03/06 08:20:21;;;;;;;3.33;3.00;;;;;;;0.96;82.91;101585.59;1770336;80;20955;-83
2022/03/06 08:22:48;;;;;;;4.40;3.42;;;;;;;0.93;87.18;101587.33;1736406;81;21220;-86
2022/03/06 08:25:15;;;;;;;4.20;3.37;;;;;;;0.98;92.81;101589.80;1697851;84;21055;-84
2022/03/06 08:27:43;;;;;;;4.72;3.33;;;;;;;1.01;91.35;101591.04;1724667;83;21119;-84
2022/03/06 08:30:10;;;;;;;4.70;3.42;;;;;;;0.96;83.22;101593.28;1724579;83;21520;-85
2022/03/06 08:32:39;;;;;;;7.17;4.35;;;;;;;0.91;81.72;101591.66;1724525;82;21051;-83
2022/03/06 08:35:09;;;;;;;4.92;3.05;;;;;;;0.91;84.00;101596.80;1724786;82;20953;-85
2022/03/06 08:37:37;;;;;;;4.10;3.17;;;;;;;0.91;82.20;101599.36;1724358;83;21067;-84
2022/03/06 08:40:08;;;;;;;3.77;3.12;;;;;;;0.94;84.00;101598.45;1730554;81;21002;-84
2022/03/06 08:42:37;;;;;;;2.92;2.45;;;;;;;0.99;87.00;101594.06;1742981;81;21069;-84
2022/03/06 08:45:05;;;;;;;5.22;3.72;;;;;;;1.07;87.02;101592.64;1753225;81;21140;-83
2022/03/06 08:47:34;;;;;;;5.17;2.77;;;;;;;1.14;84.60;101586.94;1735877;81;21030;-84
2022/03/06 08:50:03;;;;;;;4.00;3.37;;;;;;;1.18;80.95;101591.14;1723979;81;21065;-84
2022/03/06 08:52:32;;;;;;;3.80;3.25;;;;;;;1.18;80.79;101586.84;1724096;83;21571;-84
2022/03/06 08:55:00;;;;;;;4.85;3.10;;;;;;;1.18;83.53;101588.12;1724301;81;21018;-84
2022/03/06 08:57:27;;;;;;;3.90;3.00;;;;;;;1.23;83.89;101586.75;1724329;81;20986;-84
2022/03/06 08:59:53;;;;;;;3.20;2.55;;;;;;;1.25;81.93;101583.72;1724716;81;21145;-84
2022/03/06 09:02:21;;;;;;;2.50;2.30;;;;;;;1.30;86.78;101587.48;1744063;81;21058;-84
2022/03/06 09:04:49;;;;;;;6.15;3.40;;;;;;;1.36;81.77;101586.06;1746210;81;21038;-83
2022/03/06 09:07:16;;;;;;;4.65;3.55;;;;;;;1.38;79.31;101581.30;1741659;81;21022;-85
2022/03/06 09:09:44;;;;;;;6.17;3.25;;;;;;;1.41;80.80;101584.23;1750078;81;21062;-86
2022/03/06 09:12:12;;;;;;;3.12;2.80;;;;;;;1.41;78.72;101582.95;1745729;81;21173;-84
2022/03/06 09:14:39;;;;;;;3.12;2.17;;;;;;;1.38;73.04;101584.31;1749558;81;21025;-86
2022/03/06 09:17:09;;;;;;;3.22;2.77;;;;;;;1.30;69.62;101591.33;1753469;81;21547;-86
2022/03/06 09:19:36;;;;;;;3.90;2.60;;;;;;;1.22;68.00;101582.08;1753575;81;21503;-85
2022/03/06 09:22:04;;;;;;;2.85;2.50;;;;;;;1.22;71.15;101583.78;1739277;81;21073;-86
2022/03/06 09:24:31;;;;;;;3.62;2.20;;;;;;;1.26;70.63;101585.42;1745499;81;21109;-85
2022/03/06 09:26:59;;;;;;;2.83;2.25;;;;;;;1.30;68.16;101584.92;1742798;81;21497;-85
2022/03/06 09:29:26;;;;;;;2.83;2.30;;;;;;;1.25;65.29;101587.58;1754711;81;21007;-87
2022/03/06 09:31:53;;;;;;;2.62;2.10;;;;;;;1.21;63.71;101586.80;1734024;81;21599;-86
2022/03/06 09:34:20;;;;;;;2.50;2.30;;;;;;;1.22;67.25;101583.36;1745840;81;21037;-86
2022/03/06 09:36:48;;;;;;;2.98;2.10;;;;;;;1.25;69.61;101590.14;1750082;81;21638;-86
2022/03/06 09:39:15;;;;;;;2.35;2.10;;;;;;;1.28;67.41;101585.38;1752632;81;21097;-86
2022/03/06 09:41:49;;;;;;;3.12;2.20;;;;;;;1.31;67.74;101584.05;1751831;81;21579;-90
2022/03/06 09:44:17;;;;;;;2.58;2.37;;;;;;;1.40;69.59;101582.57;1755019;81;21018;-86
2022/03/06 09:46:44;;;;;;;3.25;2.22;;;;;;;1.49;66.80;101577.67;1721341;81;21081;-86
2022/03/06 09:49:11;;;;;;;2.77;2.25;;;;;;;1.57;71.56;101579.17;1755126;81;21277;-85
2022/03/06 09:51:41;;;;;;;3.20;2.42;;;;;;;1.72;74.94;101578.45;1742008;81;21026;-86
2022/03/06 09:54:12;;;;;;;2.45;2.05;;;;;;;1.77;68.18;101581.75;1734126;81;21622;-86
2022/03/06 09:56:44;;;;;;;3.50;2.72;;;;;;;1.60;63.06;101575.72;1757778;81;21004;-88
2022/03/06 09:59:12;;;;;;;2.98;2.40;;;;;;;1.42;67.98;101582.08;1761602;81;20998;-86
2022/03/06 10:01:39;;;;;;;2.67;2.30;;;;;;;1.29;73.23;101580.20;1761616;81;21890;-87
2022/03/06 10:04:29;;;;;;;3.10;2.40;;;;;;;1.18;66.39;101580.88;1735231;81;21050;-89
2022/03/06 10:07:14;;;;;;;3.45;2.90;;;;;;;1.03;66.92;101575.19;1752215;81;26691;-89
2022/03/06 10:09:46;;;;;;;3.35;2.60;;;;;;;0.92;77.32;101574.09;1754420;81;21113;-87
2022/03/06 10:12:28;;;;;;;2.83;2.33;;;;;;;0.87;75.47;101575.91;1753824;81;21042;-88
2022/03/06 10:15:07;;;;;;;12.78;2.75;;;;;;;0.81;69.10;101577.31;1754342;81;21093;-86
2022/03/06 10:17:35;;;;;;;3.70;2.75;;;;;;;0.76;70.22;101569.70;1753723;81;20995;-85
2022/03/06 10:20:12;;;;;;;3.02;2.67;;;;;;;0.74;66.73;101575.30;1796781;79;21584;-87
2022/03/06 10:22:43;;;;;;;3.95;2.50;;;;;;;0.75;67.04;101571.03;1734551;82;21047;-86
2022/03/06 10:25:20;;;;;;;3.00;2.70;;;;;;;0.83;69.45;101570.45;1742162;82;21440;-87
2022/03/06 10:27:54;;;;;;;3.25;2.30;;;;;;;0.92;69.89;101568.13;1796886;79;21152;-88
2022/03/06 10:30:29;;;;;;;4.62;2.90;;;;;;;1.02;68.67;101568.36;1776656;80;21051;-88
2022/03/06 10:33:14;;;;;;;2.60;2.30;;;;;;;1.08;67.64;101567.41;1776464;80;21035;-86
2022/03/06 10:35:42;;;;;;;2.42;2.22;;;;;;;1.09;70.96;101562.66;1775463;80;21083;-87
2022/03/06 10:38:25;;;;;;;2.83;2.57;;;;;;;1.03;69.48;101566.63;1775212;80;21051;-89
2022/03/06 10:41:03;;;;;;;2.85;2.50;;;;;;;1.02;72.86;101559.80;1723564;80;21256;-88
2022/03/06 10:43:33;;;;;;;3.33;2.62;;;;;;;1.00;76.28;101556.45;1752357;80;21035;-87
2022/03/06 10:46:11;;;;;;;2.90;2.37;;;;;;;0.93;84.18;101559.11;1744446;80;21072;-86
2022/03/06 10:48:58;;;;;;;3.72;2.98;;;;;;;0.91;82.37;101561.30;1743279;82;21051;-89
2022/03/06 10:51:20;;;;;;;3.25;2.50;;;;;;;0.86;75.47;101555.44;1692283;81;21523;-88
2022/03/06 10:54:14;;;;;;;2.83;2.50;;;;;;;0.83;70.20;101563.17;1721196;81;21975;-88
2022/03/06 10:56:50;;;;;;;4.70;2.30;;;;;;;0.81;69.93;101555.52;1720126;81;21598;-87
2022/03/06 10:59:25;;;;;;;2.37;2.17;;;;;;;0.88;73.65;101550.67;1754240;81;21103;-90
2022/03/06 11:01:55;;;;;;;2.92;2.65;;;;;;;0.96;75.94;101549.67;1755155;81;21035;-86
2022/03/06 11:04:25;;;;;;;2.55;2.27;;;;;;;1.06;85.13;101546.06;1753261;81;21692;-86
2022/03/06 11:06:56;;;;;;;3.22;2.92;;;;;;;1.18;85.36;101549.64;1705145;81;21032;-90
2022/03/06 11:09:23;;;;;;;3.02;2.67;;;;;;;1.26;83.75;101544.36;1738946;81;21606;-86
2022/03/06 11:11:51;;;;;;;3.70;2.40;;;;;;;1.37;79.89;101545.41;1740987;81;21081;-87
2022/03/06 11:14:21;;;;;;;3.87;2.65;;;;;;;1.48;77.49;101538.33;1735417;81;21070;-88
2022/03/06 11:16:48;;;;;;;3.95;2.30;;;;;;;1.68;81.01;101537.02;1745860;79;21065;-86
2022/03/06 11:19:16;;;;;;;3.80;2.47;;;;;;;1.86;76.17;101543.44;1750345;81;21159;-87
2022/03/06 11:21:46;;;;;;;3.65;2.87;;;;;;;1.98;76.73;101545.73;1754097;81;21041;-89